createdAt,value
2019-04-10T04:57:24.527Z,52.72
2019-04-10T04:58:22.272Z,83.10
2019-04-10T04:59:21.478Z,83.23
2019-04-10T05:00:21.591Z,83.37
2019-04-10T05:01:21.454Z,83.58
2019-04-10T05:02:21.986Z,83.67
2019-04-10T05:03:22.726Z,83.52
2019-04-10T05:04:22.812Z,84.31
2019-04-10T05:05:21.464Z,84.48
2019-04-10T05:06:22.272Z,83.85
2019-04-10T05:07:22.498Z,84.11
2019-04-10T05:08:21.832Z,83.36
2019-04-10T05:09:31.200Z,82.72
2019-04-10T05:10:21.541Z,82.76
2019-04-10T05:11:22.318Z,83.30
2019-04-10T05:12:23.512Z,83.67
2019-04-10T05:13:22.246Z,83.73
2019-04-10T05:14:21.725Z,82.94
2019-04-10T05:15:21.671Z,82.58
2019-04-10T05:16:22.511Z,82.69
2019-04-10T05:17:22.177Z,82.41
2019-04-10T05:18:21.812Z,82.56
2019-04-10T05:19:21.621Z,82.58
2019-04-10T05:20:21.604Z,82.25
2019-04-10T05:21:21.612Z,82.27
2019-04-10T05:22:22.311Z,83.01
2019-04-10T05:23:22.394Z,83.09
2019-04-10T05:24:22.067Z,83.19
2019-04-10T05:25:21.807Z,82.85
2019-04-10T05:26:22.709Z,83.02
2019-04-10T05:27:22.614Z,83.39
2019-04-10T05:28:24.247Z,83.27
2019-04-10T05:29:21.754Z,83.31
2019-04-10T05:30:21.575Z,82.81
2019-04-10T05:31:21.792Z,82.52
2019-04-10T05:32:21.726Z,82.18
2019-04-10T05:33:22.557Z,82.51
2019-04-10T05:34:22.017Z,82.07
2019-04-10T05:35:21.665Z,82.55
2019-04-10T05:36:21.672Z,82.47
2019-04-10T05:37:21.784Z,81.89
2019-04-10T05:38:22.593Z,82.44
2019-04-10T05:39:22.477Z,82.51
2019-04-10T05:40:22.004Z,82.95
2019-04-10T05:41:23.262Z,82.70
2019-04-10T05:42:22.600Z,83.13
2019-04-10T05:43:22.033Z,82.86
2019-04-10T05:44:21.671Z,82.84
2019-04-10T05:45:21.851Z,82.86
2019-04-10T05:46:22.975Z,83.14
2019-04-10T05:47:21.724Z,83.30
2019-04-10T05:48:23.492Z,83.31
2019-04-10T05:49:22.531Z,82.58
2019-04-10T05:50:21.930Z,82.33
2019-04-10T05:51:21.826Z,81.61
2019-04-10T05:52:22.349Z,81.42
2019-04-10T05:53:22.554Z,80.99
2019-04-10T05:54:22.574Z,80.69
2019-04-10T05:55:22.608Z,81.34
2019-04-10T05:56:22.499Z,82.01
2019-04-10T05:57:21.815Z,81.97
2019-04-10T05:58:21.872Z,81.51
2019-04-10T05:59:21.869Z,81.64
2019-04-10T06:00:22.906Z,81.94
2019-04-10T06:01:33.266Z,82.19
2019-04-10T06:02:22.980Z,82.54
2019-04-10T06:03:22.730Z,82.45
2019-04-10T06:04:22.131Z,82.52
2019-04-10T06:05:22.352Z,82.90
2019-04-10T06:06:22.235Z,83.12
2019-04-10T06:07:22.982Z,83.00
2019-04-10T06:08:21.828Z,82.52
2019-04-10T06:09:22.735Z,82.69
2019-04-10T06:10:21.784Z,82.79
2019-04-10T06:11:22.548Z,82.98
2019-04-10T06:12:22.317Z,83.09
2019-04-10T06:13:22.814Z,83.21
2019-04-10T06:14:22.098Z,83.20
2019-04-10T06:15:23.190Z,82.65
2019-04-10T06:16:21.871Z,82.61
2019-04-10T06:17:22.684Z,82.73
2019-04-10T06:18:22.868Z,82.62
2019-04-10T06:19:22.079Z,82.91
2019-04-10T06:20:25.111Z,82.74
2019-04-10T06:21:23.001Z,82.40
2019-04-10T06:22:22.798Z,82.73
2019-04-10T06:23:21.922Z,82.37
2019-04-10T06:24:22.445Z,82.17
2019-04-10T06:25:24.787Z,81.67
2019-04-10T06:26:21.982Z,82.28
2019-04-10T06:27:22.088Z,82.23
2019-04-10T06:28:24.206Z,82.51
2019-04-10T06:29:21.806Z,82.49
2019-04-10T06:30:21.841Z,81.93
2019-04-10T06:31:22.893Z,81.63
2019-04-10T06:32:21.742Z,82.15
2019-04-10T06:33:22.224Z,82.18
2019-04-10T06:34:23.293Z,82.29
2019-04-10T06:35:22.062Z,82.56
2019-04-10T06:36:22.012Z,82.45
2019-04-10T06:37:22.058Z,82.02
2019-04-10T06:38:22.921Z,81.86
2019-04-10T06:39:21.790Z,82.27
2019-04-10T06:40:24.200Z,82.48
2019-04-10T06:41:22.259Z,82.55
2019-04-10T06:42:22.542Z,83.33
2019-04-10T06:43:22.572Z,83.26
2019-04-10T06:44:21.854Z,83.24
2019-04-10T06:45:21.915Z,82.55
2019-04-10T06:46:22.219Z,82.90
2019-04-10T06:47:22.316Z,83.14
2019-04-10T06:49:03.357Z,83.00
2019-04-10T06:50:04.347Z,83.10
2019-04-10T06:51:03.997Z,82.50
2019-04-10T06:52:03.249Z,82.48
2019-04-10T06:53:04.157Z,81.80
2019-04-10T06:54:08.081Z,81.87
2019-04-10T06:55:03.335Z,80.86
2019-04-10T06:56:03.317Z,81.71
2019-04-10T06:57:03.300Z,81.62
2019-04-10T06:58:03.419Z,82.12
2019-04-10T06:59:04.483Z,82.01
2019-04-10T07:00:04.230Z,82.05
2019-04-10T07:01:04.166Z,82.15
2019-04-10T07:02:16.714Z,81.84
2019-04-10T07:03:03.518Z,81.97
2019-04-10T07:04:07.319Z,81.65
2019-04-10T07:05:07.451Z,81.35
2019-04-10T07:06:09.700Z,81.32
2019-04-10T07:07:08.870Z,81.01
2019-04-10T07:08:12.182Z,80.64
2019-04-10T07:09:03.466Z,80.46
2019-04-10T07:10:05.521Z,80.53
2019-04-10T07:11:08.371Z,79.82
2019-04-10T07:12:04.713Z,79.33
2019-04-10T07:13:06.339Z,80.00
2019-04-10T07:14:03.345Z,80.29
2019-04-10T07:15:04.203Z,80.06
2019-04-10T07:16:04.197Z,79.74
2019-04-10T07:17:06.728Z,78.90
2019-04-10T07:18:03.497Z,78.98
2019-04-10T07:19:04.777Z,79.23
2019-04-10T07:20:03.491Z,79.38
2019-04-10T07:21:04.211Z,79.65
2019-04-10T07:22:08.859Z,80.54
2019-04-10T07:23:03.433Z,80.27
2019-04-10T07:24:06.586Z,79.26
2019-04-10T07:25:04.653Z,79.53
2019-04-10T07:26:03.785Z,79.50
2019-04-10T07:27:04.865Z,79.46
2019-04-10T07:28:07.382Z,80.31
2019-04-10T07:29:04.599Z,80.67
2019-04-10T07:30:03.646Z,79.54
2019-04-10T07:31:07.248Z,78.89
2019-04-10T07:32:07.795Z,79.19
2019-04-10T07:33:03.518Z,79.16
2019-04-10T07:34:03.412Z,79.04
2019-04-10T07:35:03.561Z,79.45
2019-04-10T07:36:08.500Z,79.19
2019-04-10T07:37:03.451Z,79.25
2019-04-10T07:38:03.538Z,79.19
2019-04-10T07:39:03.597Z,80.12
2019-04-10T07:40:04.608Z,80.01
2019-04-10T07:41:06.298Z,80.31
2019-04-10T07:42:04.136Z,79.62
2019-04-10T07:43:04.202Z,80.11
2019-04-10T07:44:03.737Z,80.01
2019-04-10T07:45:03.464Z,80.69
2019-04-10T07:46:03.467Z,80.14
2019-04-10T07:47:03.353Z,80.87
2019-04-10T07:48:04.435Z,80.65
2019-04-10T07:49:03.404Z,81.32
2019-04-10T07:50:04.792Z,80.24
2019-04-10T07:51:03.552Z,80.78
2019-04-10T07:52:03.720Z,80.94
2019-04-10T07:53:03.517Z,81.04
2019-04-10T07:54:04.063Z,79.29
2019-04-10T07:55:04.411Z,80.47
2019-04-10T07:56:09.025Z,81.48
2019-04-10T07:57:04.319Z,80.86
2019-04-10T07:58:04.857Z,79.17
2019-04-10T07:59:03.599Z,78.74
2019-04-10T08:00:03.591Z,81.78
2019-04-10T08:01:03.514Z,81.04
2019-04-10T08:02:05.959Z,78.98
2019-04-10T08:03:04.164Z,79.31
2019-04-10T08:04:04.153Z,79.98
2019-04-10T08:05:04.340Z,79.81
2019-04-10T08:06:03.620Z,79.61
2019-04-10T08:07:03.407Z,79.12
2019-04-10T08:08:03.528Z,79.12
2019-04-10T08:09:04.467Z,79.74
2019-04-10T08:10:03.694Z,79.53
2019-04-10T08:11:05.047Z,79.37
2019-04-10T08:12:03.644Z,79.40
2019-04-10T08:13:04.570Z,79.32
2019-04-10T08:14:06.096Z,79.14
2019-04-10T08:15:05.001Z,79.58
2019-04-10T08:16:03.467Z,77.98
2019-04-10T08:17:03.762Z,79.60
2019-04-10T08:18:04.596Z,79.67
2019-04-10T08:19:04.095Z,78.91
2019-04-10T08:20:03.779Z,78.21
2019-04-10T08:21:03.480Z,77.70
2019-04-10T08:22:03.739Z,77.41
2019-04-10T08:23:03.765Z,78.91
2019-04-10T08:24:03.758Z,78.94
2019-04-10T08:25:04.395Z,79.37
2019-04-10T08:26:03.668Z,78.75
2019-04-10T08:27:03.639Z,78.06
2019-04-10T08:28:03.565Z,78.10
2019-04-10T08:29:03.700Z,78.82
2019-04-10T08:30:03.549Z,78.93
2019-04-10T08:31:04.441Z,79.18
2019-04-10T08:32:03.683Z,78.44
2019-04-10T08:33:04.807Z,78.80
2019-04-10T08:34:03.512Z,79.04
2019-04-10T08:35:04.565Z,79.19
2019-04-10T08:36:03.688Z,78.40
2019-04-10T08:37:03.862Z,78.80
2019-04-10T08:38:03.551Z,78.84
2019-04-10T08:39:04.596Z,78.67
2019-04-10T08:40:03.705Z,79.58
2019-04-10T08:41:03.567Z,78.72
2019-04-10T08:42:03.647Z,78.78
2019-04-10T08:43:04.158Z,79.88
2019-04-10T08:44:04.426Z,79.63
2019-04-10T08:45:03.578Z,78.71
2019-04-10T08:46:03.609Z,78.99
2019-04-10T08:47:03.509Z,78.78
2019-04-10T08:48:03.750Z,78.67
2019-04-10T08:49:03.651Z,78.51
2019-04-10T08:50:04.180Z,78.60
2019-04-10T08:51:03.691Z,78.88
2019-04-10T08:52:04.836Z,78.75
2019-04-10T08:53:04.110Z,78.03
2019-04-10T08:54:03.802Z,76.96
2019-04-10T08:55:03.861Z,78.75
2019-04-10T08:56:04.490Z,77.83
2019-04-10T08:57:03.695Z,78.73
2019-04-10T08:58:03.616Z,77.91
2019-04-10T08:59:03.993Z,77.98
2019-04-10T09:00:04.566Z,77.24
2019-04-10T09:01:03.635Z,78.39
2019-04-10T09:02:04.010Z,76.59
2019-04-10T09:03:03.620Z,77.03
2019-04-10T09:04:03.706Z,77.31
2019-04-10T09:05:03.720Z,76.61
2019-04-10T09:06:03.855Z,76.54
2019-04-10T09:07:05.016Z,77.14
2019-04-10T09:08:04.532Z,76.98
2019-04-10T09:09:03.708Z,76.82
2019-04-10T09:10:03.883Z,78.02
2019-04-10T09:11:03.708Z,76.19
2019-04-10T09:12:03.696Z,77.20
2019-04-10T09:13:04.330Z,77.05
2019-04-10T09:14:03.737Z,77.41
2019-04-10T09:15:03.711Z,78.97
2019-04-10T09:16:04.538Z,78.84
2019-04-10T09:17:03.896Z,78.73
2019-04-10T09:18:04.073Z,78.47
2019-04-10T09:19:03.706Z,79.49
2019-04-10T09:20:04.531Z,77.46
2019-04-10T09:21:04.920Z,77.73
2019-04-10T09:22:03.793Z,79.57
2019-04-10T09:23:26.485Z,79.42
2019-04-10T09:24:04.708Z,79.57
2019-04-10T09:25:03.703Z,77.98
2019-04-10T09:26:03.867Z,78.28
2019-04-10T09:27:04.676Z,76.64
2019-04-10T09:28:04.315Z,77.59
2019-04-10T09:29:04.600Z,79.21
2019-04-10T09:30:04.602Z,75.41
2019-04-10T09:31:03.602Z,77.27
2019-04-10T09:32:04.414Z,77.94
2019-04-10T09:33:15.713Z,77.57
2019-04-10T09:34:03.683Z,78.42
2019-04-10T09:35:04.478Z,77.91
2019-04-10T09:36:04.709Z,77.60
2019-04-10T09:37:03.960Z,77.68
2019-04-10T09:38:04.217Z,76.81
2019-04-10T09:39:03.635Z,78.29
2019-04-10T09:40:03.690Z,77.05
2019-04-10T09:41:03.820Z,79.46
2019-04-10T09:42:03.757Z,77.56
2019-04-10T09:43:05.007Z,78.41
2019-04-10T09:44:04.534Z,77.33
2019-04-10T09:45:04.674Z,77.32
2019-04-10T09:46:04.257Z,78.09
2019-04-10T09:47:03.930Z,77.60
2019-04-10T09:48:04.253Z,77.34
2019-04-10T09:49:05.401Z,77.25
2019-04-10T09:50:03.959Z,77.51
2019-04-10T09:51:03.661Z,77.94
2019-04-10T09:52:04.728Z,77.58
2019-04-10T09:53:04.155Z,78.16
2019-04-10T09:54:03.810Z,78.00
2019-04-10T09:55:03.740Z,78.24
2019-04-10T09:56:03.731Z,77.35
2019-04-10T09:57:03.673Z,79.20
2019-04-10T09:58:03.639Z,78.00
2019-04-10T09:59:03.727Z,79.38
2019-04-10T10:00:05.217Z,77.75
2019-04-10T10:01:04.781Z,76.55
2019-04-10T10:02:03.851Z,76.95
2019-04-10T10:03:03.652Z,75.54
2019-04-10T10:04:04.730Z,76.22
2019-04-10T10:05:04.423Z,77.00
2019-04-10T10:06:03.739Z,77.02
2019-04-10T10:07:04.006Z,76.02
2019-04-10T10:08:04.345Z,76.82
2019-04-10T10:09:04.115Z,77.09
2019-04-10T10:10:04.275Z,77.83
2019-04-10T10:11:04.050Z,77.16
2019-04-10T10:12:03.843Z,77.67
2019-04-10T10:13:03.758Z,77.97
2019-04-10T10:14:04.113Z,78.08
2019-04-10T10:15:03.779Z,79.66
2019-04-10T10:16:04.150Z,80.25
2019-04-10T10:17:04.371Z,76.27
2019-04-10T10:18:04.004Z,77.63
2019-04-10T10:19:03.935Z,77.45
2019-04-10T10:20:04.049Z,78.80
2019-04-10T10:21:04.185Z,77.84
2019-04-10T10:22:04.612Z,80.55
2019-04-10T10:23:03.987Z,77.61
2019-04-10T10:24:04.537Z,75.81
2019-04-10T10:25:04.826Z,78.13
2019-04-10T10:26:03.963Z,77.99
2019-04-10T10:27:05.253Z,78.89
2019-04-10T10:28:04.971Z,77.72
2019-04-10T10:29:04.837Z,76.67
2019-04-10T10:30:03.911Z,77.03
2019-04-10T10:31:04.107Z,77.63
2019-04-10T10:32:04.643Z,76.67
2019-04-10T10:33:04.074Z,77.60
2019-04-10T10:34:04.001Z,76.30
2019-04-10T10:35:05.004Z,76.02
2019-04-10T10:36:05.331Z,76.15
2019-04-10T10:37:04.001Z,76.12
2019-04-10T10:38:05.304Z,75.84
2019-04-10T10:39:10.576Z,75.65
2019-04-10T10:40:04.099Z,75.91
2019-04-10T10:41:04.599Z,75.65
2019-04-10T10:42:05.180Z,76.35
2019-04-10T10:43:04.458Z,75.44
2019-04-10T10:44:04.808Z,74.17
2019-04-10T10:45:04.783Z,73.92
2019-04-10T10:46:04.082Z,73.17
2019-04-10T10:47:04.166Z,73.97
2019-04-10T10:48:07.209Z,73.27
2019-04-10T10:49:04.250Z,73.76
2019-04-10T10:50:04.608Z,74.35
2019-04-10T10:51:04.591Z,73.91
2019-04-10T10:52:04.061Z,74.84
2019-04-10T10:53:04.061Z,73.93
2019-04-10T10:54:05.317Z,73.04
2019-04-10T10:55:03.956Z,72.92
2019-04-10T10:56:04.281Z,72.96
2019-04-10T10:57:03.947Z,73.96
2019-04-10T10:58:03.932Z,73.23
2019-04-10T10:59:05.002Z,72.01
2019-04-10T11:00:04.421Z,72.86
2019-04-10T11:01:05.278Z,72.59
2019-04-10T11:02:04.417Z,73.61
2019-04-10T11:03:04.111Z,73.13
2019-04-10T11:04:04.712Z,73.01
2019-04-10T11:05:06.937Z,70.92
2019-04-10T11:06:04.113Z,71.88
2019-04-10T11:07:04.689Z,71.04
2019-04-10T11:08:05.353Z,69.90
2019-04-10T11:09:04.198Z,70.33
2019-04-10T11:10:04.326Z,68.68
2019-04-10T11:11:04.351Z,69.29
2019-04-10T11:12:06.799Z,70.24
2019-04-10T11:13:04.307Z,70.05
2019-04-10T11:14:04.709Z,70.55
2019-04-10T11:15:04.055Z,71.58
2019-04-10T11:16:05.685Z,71.04
2019-04-10T11:17:05.297Z,70.44
2019-04-10T11:18:04.295Z,69.75
2019-04-10T11:19:04.855Z,69.09
2019-04-10T11:20:04.229Z,67.43
2019-04-10T11:21:08.014Z,67.58
2019-04-10T11:22:05.014Z,67.42
2019-04-10T11:23:04.250Z,68.32
2019-04-10T11:24:04.667Z,68.74
2019-04-10T11:25:04.112Z,68.92
2019-04-10T11:26:04.673Z,69.29
2019-04-10T11:27:04.156Z,68.05
2019-04-10T11:28:04.076Z,67.44
2019-04-10T11:29:04.013Z,67.26
2019-04-10T11:30:05.354Z,67.51
2019-04-10T11:31:04.617Z,67.64
2019-04-10T11:32:04.309Z,66.18
2019-04-10T11:33:04.147Z,66.95
2019-04-10T11:34:04.253Z,65.63
2019-04-10T11:35:04.566Z,66.62
2019-04-10T11:36:04.056Z,66.38
2019-04-10T11:37:19.304Z,65.39
2019-04-10T11:38:05.798Z,64.85
2019-04-10T11:39:12.093Z,65.92
2019-04-10T11:40:05.146Z,66.68
2019-04-10T11:41:07.199Z,67.71
2019-04-10T11:42:04.240Z,66.56
2019-04-10T11:43:05.300Z,68.10
2019-04-10T11:44:04.387Z,67.32
2019-04-10T11:45:06.037Z,67.21
2019-04-10T11:46:04.231Z,65.22
2019-04-10T11:47:06.331Z,65.35
2019-04-10T11:48:04.435Z,66.55
2019-04-10T11:49:04.999Z,64.90
2019-04-10T11:50:09.110Z,65.17
2019-04-10T11:51:04.101Z,65.16
2019-04-10T11:52:05.675Z,65.54
2019-04-10T11:53:04.506Z,64.50
2019-04-10T11:54:07.713Z,64.92
2019-04-10T11:55:10.561Z,65.61
2019-04-10T11:57:06.330Z,66.87
2019-04-10T11:58:05.575Z,65.90
2019-04-10T11:59:07.624Z,65.26
2019-04-10T12:00:08.255Z,63.43
2019-04-10T12:01:07.846Z,64.61
2019-04-10T12:02:06.641Z,65.25
2019-04-10T12:03:04.756Z,64.78
2019-04-10T12:04:06.694Z,66.15
2019-04-10T12:05:10.996Z,67.29
2019-04-10T12:06:04.848Z,66.91
2019-04-10T12:07:05.843Z,65.96
2019-04-10T12:09:29.981Z,65.16
2019-04-10T12:12:04.162Z,66.72
2019-04-10T12:13:04.213Z,67.29
2019-04-10T12:14:04.972Z,66.60
2019-04-10T12:15:04.263Z,66.58
2019-04-10T12:16:05.137Z,67.41
2019-04-10T12:17:05.383Z,67.68
2019-04-10T12:18:04.474Z,68.52
2019-04-10T12:19:04.723Z,67.81
2019-04-10T12:20:04.814Z,66.62
2019-04-10T12:21:05.275Z,65.87
2019-04-10T12:22:05.336Z,67.56
2019-04-10T12:23:05.021Z,67.57
2019-04-10T12:24:04.059Z,68.69
